Time;durP1;ratioP1;P1;durP2;ratioP2;P2;SDS_P1;SDS_P2;PMS_P1;PMS_P2;Temp;Humidity;BMP_temperature;BMP_pressure;BME280_temperature;BME280_humidity;BME280_pressure;Samples;Min_cycle;Max_cycle;Signal;HPM_P1;HPM_P2
2022/04/04 00:00:13;;;;;;;1.40;0.70;;;9.90;96.70;;;;;;5110146;27;20500;-83
2022/04/04 00:02:41;;;;;;;1.35;0.77;;;9.80;96.70;;;;;;5128593;28;20054;-83
2022/04/04 00:05:11;;;;;;;1.27;0.60;;;9.70;96.70;;;;;;5110410;28;20039;-83
2022/04/04 00:07:39;;;;;;;0.80;0.60;;;9.80;96.70;;;;;;5110473;28;20035;-83
2022/04/04 00:10:08;;;;;;;2.50;1.13;;;9.70;96.70;;;;;;5110188;28;20059;-83
2022/04/04 00:12:36;;;;;;;1.35;0.65;;;9.70;96.70;;;;;;5088667;28;20112;-82
2022/04/04 00:15:07;;;;;;;2.00;0.60;;;9.80;96.70;;;;;;5127534;27;20035;-83
2022/04/04 00:17:35;;;;;;;1.35;0.60;;;9.70;96.70;;;;;;5120754;27;20050;-81
2022/04/04 00:20:05;;;;;;;0.85;0.40;;;9.70;96.70;;;;;;5114289;27;20061;-82
2022/04/04 00:22:34;;;;;;;0.75;0.60;;;9.70;96.70;;;;;;5115813;27;20127;-81
2022/04/04 00:25:02;;;;;;;2.72;0.75;;;9.70;96.70;;;;;;5117347;27;20047;-83
2022/04/04 00:27:30;;;;;;;0.50;0.35;;;9.70;96.70;;;;;;5093468;28;20071;-83
2022/04/04 00:29:59;;;;;;;1.65;0.75;;;9.70;96.70;;;;;;5103351;27;20099;-86
2022/04/04 00:32:29;;;;;;;1.80;0.80;;;9.70;96.70;;;;;;5113544;27;20039;-85
2022/04/04 00:35:00;;;;;;;0.95;0.55;;;9.60;96.70;;;;;;5113448;27;20154;-80
2022/04/04 00:37:28;;;;;;;1.00;0.50;;;9.60;96.70;;;;;;5113666;27;20047;-83
2022/04/04 00:39:56;;;;;;;1.05;0.60;;;9.60;96.70;;;;;;5112907;27;20133;-83
2022/04/04 00:42:24;;;;;;;0.80;0.52;;;9.60;96.70;;;;;;5094257;27;20093;-83
2022/04/04 00:44:52;;;;;;;0.95;0.57;;;9.60;96.70;;;;;;5096067;27;20513;-82
2022/04/04 00:47:21;;;;;;;0.55;0.40;;;9.60;96.70;;;;;;5113383;27;20069;-83
2022/04/04 00:49:50;;;;;;;1.92;0.73;;;9.60;96.70;;;;;;5113891;27;20035;-77
2022/04/04 00:52:21;;;;;;;0.75;0.47;;;9.70;96.70;;;;;;5108048;27;20058;-76
2022/04/04 00:54:50;;;;;;;1.13;0.63;;;9.70;96.70;;;;;;5107085;27;20642;-76
2022/04/04 00:57:18;;;;;;;1.40;1.10;;;9.70;96.70;;;;;;5108452;27;20050;-76
2022/04/04 00:59:48;;;;;;;1.45;0.73;;;9.60;96.70;;;;;;5107759;27;20681;-76
2022/04/04 01:02:16;;;;;;;2.28;1.27;;;9.50;96.70;;;;;;5090149;27;20048;-76
2022/04/04 01:04:44;;;;;;;1.00;0.50;;;9.40;96.70;;;;;;5102818;27;20046;-76
2022/04/04 01:07:14;;;;;;;1.30;0.60;;;9.40;96.70;;;;;;5107890;27;20047;-76
2022/04/04 01:09:42;;;;;;;1.17;0.55;;;9.50;96.70;;;;;;5107310;27;20043;-74
2022/04/04 01:12:11;;;;;;;1.40;0.50;;;9.50;96.70;;;;;;5119123;27;20130;-76
2022/04/04 01:14:42;;;;;;;1.08;0.60;;;9.50;96.70;;;;;;5125944;27;20588;-76
2022/04/04 01:17:10;;;;;;;1.13;0.50;;;9.60;96.70;;;;;;5126296;27;20043;-76
2022/04/04 01:19:38;;;;;;;1.90;0.50;;;9.60;96.70;;;;;;5116368;27;20035;-76
2022/04/04 01:22:12;;;;;;;1.08;0.60;;;9.50;96.70;;;;;;5107906;27;20071;-76
2022/04/04 01:24:44;;;;;;;1.23;0.60;;;9.50;96.70;;;;;;5106598;27;20513;-75
2022/04/04 01:27:13;;;;;;;1.13;0.55;;;9.50;96.70;;;;;;5125089;27;20043;-76
2022/04/04 01:29:42;;;;;;;1.65;0.50;;;9.50;96.70;;;;;;5106815;27;20043;-79
2022/04/04 01:32:10;;;;;;;3.83;0.95;;;9.40;96.70;;;;;;5107897;27;20096;-78
2022/04/04 01:34:38;;;;;;;1.52;0.93;;;9.50;96.70;;;;;;5121834;27;20407;-78
2022/04/04 01:37:07;;;;;;;1.52;1.20;;;9.60;96.70;;;;;;5105505;27;20050;-78
2022/04/04 01:39:35;;;;;;;2.55;1.30;;;9.60;96.70;;;;;;5125557;27;20049;-77
2022/04/04 01:42:05;;;;;;;1.33;0.75;;;9.50;96.70;;;;;;5106190;27;20067;-78
2022/04/04 01:44:33;;;;;;;1.38;0.98;;;9.40;96.70;;;;;;5125140;27;20100;-78
2022/04/04 01:47:03;;;;;;;1.48;1.10;;;9.30;96.70;;;;;;5107534;27;20051;-78
2022/04/04 01:49:31;;;;;;;1.88;1.30;;;9.10;96.70;;;;;;5105899;27;20660;-78
2022/04/04 01:51:59;;;;;;;3.95;1.95;;;9.00;96.70;;;;;;5098953;28;21171;-78
2022/04/04 01:54:27;;;;;;;2.38;1.40;;;8.90;96.70;;;;;;5086709;28;20077;-78
2022/04/04 01:57:07;;;;;;;3.20;2.00;;;8.80;96.70;;;;;;5086815;28;20046;-78
2022/04/04 01:59:36;;;;;;;2.28;1.63;;;8.80;96.70;;;;;;5086370;28;20511;-78
2022/04/04 02:02:05;;;;;;;4.28;1.95;;;8.70;96.70;;;;;;5104030;27;20591;-78
2022/04/04 02:04:33;;;;;;;1.70;1.50;;;8.70;96.70;;;;;;5092702;28;20052;-77
2022/04/04 02:07:02;;;;;;;1.92;1.30;;;8.70;96.70;;;;;;5104431;28;20108;-78
2022/04/04 02:09:30;;;;;;;1.85;1.30;;;8.80;96.70;;;;;;5085511;28;20059;-78
2022/04/04 02:11:59;;;;;;;3.33;1.27;;;8.80;96.70;;;;;;5110905;27;20217;-77
2022/04/04 02:14:28;;;;;;;1.40;1.00;;;8.80;96.70;;;;;;5103132;28;20142;-78
2022/04/04 02:16:57;;;;;;;1.40;1.02;;;8.80;96.70;;;;;;5103407;28;20046;-78
2022/04/04 02:19:25;;;;;;;1.40;1.10;;;8.90;96.70;;;;;;5103066;28;20485;-78
2022/04/04 02:21:53;;;;;;;1.58;1.00;;;9.00;96.70;;;;;;5102126;28;20043;-78
2022/04/04 02:24:21;;;;;;;2.00;1.20;;;9.10;96.70;;;;;;5102954;28;20067;-78
2022/04/04 02:26:50;;;;;;;1.58;1.10;;;9.10;96.70;;;;;;5085101;28;20050;-78
2022/04/04 02:29:18;;;;;;;1.13;0.88;;;9.10;96.70;;;;;;5102584;28;20078;-78
2022/04/04 02:31:48;;;;;;;2.03;1.33;;;9.10;96.70;;;;;;5101480;28;20044;-78
2022/04/04 02:34:16;;;;;;;1.67;0.95;;;9.20;96.70;;;;;;5097715;28;20043;-78
2022/04/04 02:36:44;;;;;;;1.55;1.15;;;9.20;96.70;;;;;;5098100;28;20052;-78
2022/04/04 02:39:12;;;;;;;1.80;1.25;;;9.20;96.70;;;;;;5103524;28;20127;-78
2022/04/04 02:41:40;;;;;;;1.23;1.00;;;9.20;96.70;;;;;;5098797;27;20138;-78
2022/04/04 02:44:09;;;;;;;2.35;1.08;;;9.10;96.70;;;;;;5085384;28;20044;-78
2022/04/04 02:46:39;;;;;;;1.75;1.20;;;9.10;96.70;;;;;;5102404;28;20124;-78
2022/04/04 02:49:09;;;;;;;1.67;1.20;;;9.10;96.70;;;;;;5105750;28;20732;-85
2022/04/04 02:51:37;;;;;;;2.20;1.20;;;9.10;96.70;;;;;;5107312;28;20343;-85
2022/04/04 02:54:05;;;;;;;2.10;1.25;;;9.10;96.70;;;;;;5107783;28;20071;-84
2022/04/04 02:56:34;;;;;;;1.95;1.20;;;9.00;96.70;;;;;;5085174;28;20054;-86
2022/04/04 02:59:02;;;;;;;2.17;1.33;;;9.00;96.70;;;;;;5090659;27;20052;-83
2022/04/04 03:01:30;;;;;;;2.28;1.17;;;9.00;96.70;;;;;;5107576;28;20092;-83
2022/04/04 03:03:59;;;;;;;2.90;1.10;;;9.00;96.70;;;;;;5106863;28;20051;-86
2022/04/04 03:06:29;;;;;;;1.60;1.10;;;9.00;96.70;;;;;;5085017;28;20067;-85
2022/04/04 03:08:57;;;;;;;2.47;1.48;;;9.00;96.70;;;;;;5107285;28;20144;-85
2022/04/04 03:11:25;;;;;;;2.15;1.35;;;8.90;96.70;;;;;;5108076;28;20707;-85
2022/04/04 03:13:53;;;;;;;4.07;2.15;;;8.90;96.70;;;;;;5107443;28;20039;-85
2022/04/04 03:16:22;;;;;;;3.38;2.05;;;8.90;96.70;;;;;;5079836;28;20044;-84
2022/04/04 03:18:51;;;;;;;3.33;1.85;;;8.90;96.70;;;;;;5104907;28;20047;-85
2022/04/04 03:21:19;;;;;;;4.15;3.78;;;8.70;96.70;;;;;;5098558;28;20050;-83
2022/04/04 03:23:49;;;;;;;3.92;3.63;;;8.70;96.70;;;;;;5101370;28;20137;-84
2022/04/04 03:26:17;;;;;;;2.97;2.33;;;8.70;96.70;;;;;;5107071;28;20032;-85
2022/04/04 03:28:50;;;;;;;2.05;1.83;;;8.70;96.70;;;;;;5103780;28;20036;-85
2022/04/04 03:31:18;;;;;;;2.42;1.75;;;8.60;96.70;;;;;;5083590;28;20043;-84
2022/04/04 03:33:47;;;;;;;2.00;1.80;;;8.60;96.70;;;;;;5105500;28;20047;-84
2022/04/04 03:36:15;;;;;;;2.45;1.30;;;8.70;96.70;;;;;;5107309;28;20050;-85
2022/04/04 03:38:43;;;;;;;3.80;1.60;;;8.60;96.70;;;;;;5106996;28;20126;-85
2022/04/04 03:41:13;;;;;;;1.67;1.20;;;8.60;96.70;;;;;;5089950;28;20134;-85
2022/04/04 03:43:41;;;;;;;1.48;1.13;;;8.60;96.70;;;;;;5107098;28;20684;-84
2022/04/04 03:46:09;;;;;;;3.90;1.48;;;8.60;96.70;;;;;;5107156;28;20071;-84
2022/04/04 03:48:37;;;;;;;2.20;1.58;;;8.60;96.70;;;;;;5106868;28;20048;-84
2022/04/04 03:51:06;;;;;;;2.53;1.08;;;8.50;96.70;;;;;;5112755;27;20058;-83
2022/04/04 03:53:35;;;;;;;1.70;0.95;;;8.50;96.70;;;;;;5094171;28;20142;-83
2022/04/04 03:56:03;;;;;;;1.67;1.02;;;8.50;96.70;;;;;;5105420;27;20054;-83
2022/04/04 03:58:33;;;;;;;1.60;0.88;;;8.40;96.70;;;;;;5132918;27;20043;-84
2022/04/04 04:01:01;;;;;;;2.30;1.23;;;8.40;96.70;;;;;;5132648;27;20043;-84
2022/04/04 04:03:31;;;;;;;1.50;1.05;;;8.30;96.70;;;;;;5138161;27;20047;-85
2022/04/04 04:06:16;;;;;;;2.85;0.80;;;8.30;96.70;;;;;;5114142;27;20067;-85
2022/04/04 04:08:46;;;;;;;2.28;1.30;;;8.30;96.70;;;;;;5111546;27;20047;-85
2022/04/04 04:11:16;;;;;;;2.45;0.90;;;8.30;96.70;;;;;;5108674;27;20078;-83
2022/04/04 04:13:47;;;;;;;1.33;0.88;;;8.30;96.70;;;;;;5132564;27;20082;-84
2022/04/04 04:16:15;;;;;;;1.75;0.90;;;8.30;96.70;;;;;;5132351;27;20046;-83
2022/04/04 04:18:44;;;;;;;3.33;0.95;;;8.20;96.70;;;;;;5132846;27;20050;-85
2022/04/04 04:21:12;;;;;;;2.35;1.20;;;8.30;96.70;;;;;;5113481;27;20054;-84
2022/04/04 04:23:43;;;;;;;0.82;0.73;;;8.30;96.70;;;;;;5114348;27;20070;-82
2022/04/04 04:26:13;;;;;;;1.92;1.35;;;8.30;96.70;;;;;;5110661;27;20050;-83
2022/04/04 04:28:43;;;;;;;1.33;1.02;;;8.20;96.70;;;;;;5113932;27;20040;-83
2022/04/04 04:31:14;;;;;;;1.83;1.23;;;8.10;96.70;;;;;;5110154;27;20077;-82
2022/04/04 04:33:42;;;;;;;4.72;4.15;;;8.00;96.70;;;;;;5112576;27;20504;-83
2022/04/04 04:36:11;;;;;;;3.92;3.63;;;8.00;96.70;;;;;;5131117;27;20039;-84
2022/04/04 04:38:39;;;;;;;3.08;2.33;;;7.80;96.70;;;;;;5113522;27;20066;-84
2022/04/04 04:41:07;;;;;;;3.80;3.00;;;7.80;96.70;;;;;;5104086;27;20066;-83
2022/04/04 04:43:35;;;;;;;3.67;1.60;;;7.80;96.70;;;;;;5100982;27;20111;-82
2022/04/04 04:46:03;;;;;;;2.00;1.90;;;7.90;96.70;;;;;;5096394;27;20516;-83
2022/04/04 04:48:33;;;;;;;1.92;1.15;;;7.90;96.70;;;;;;5095744;27;20561;-82
2022/04/04 04:51:01;;;;;;;2.10;1.10;;;7.90;96.70;;;;;;5131109;27;20513;-83
2022/04/04 04:53:29;;;;;;;2.22;1.20;;;7.80;96.70;;;;;;5113181;27;20058;-84
2022/04/04 04:55:58;;;;;;;2.08;1.55;;;7.90;96.70;;;;;;5106863;27;20058;-84
2022/04/04 04:58:26;;;;;;;2.88;1.25;;;7.90;96.70;;;;;;5132428;27;20049;-84
2022/04/04 05:00:54;;;;;;;3.17;1.65;;;7.80;96.70;;;;;;5109994;27;20047;-84
2022/04/04 05:03:25;;;;;;;1.85;1.30;;;7.70;96.70;;;;;;5112316;27;20944;-85
2022/04/04 05:05:55;;;;;;;2.33;1.27;;;7.70;96.70;;;;;;5112895;27;20882;-84
2022/04/04 05:08:23;;;;;;;4.07;1.30;;;7.80;96.70;;;;;;5130371;27;20537;-84
2022/04/04 05:10:52;;;;;;;3.35;1.20;;;7.80;96.70;;;;;;5112497;27;20043;-84
2022/04/04 05:13:21;;;;;;;3.75;1.15;;;7.80;96.70;;;;;;5131267;27;20063;-83
2022/04/04 05:15:50;;;;;;;2.20;1.50;;;7.90;96.70;;;;;;5124039;27;20682;-84
2022/04/04 05:18:19;;;;;;;4.57;2.03;;;7.90;96.70;;;;;;5107622;28;20043;-82
2022/04/04 05:20:47;;;;;;;3.35;2.08;;;7.90;96.70;;;;;;5130585;27;20043;-82
2022/04/04 05:23:17;;;;;;;4.35;1.95;;;7.80;96.70;;;;;;5095837;27;20035;-82
2022/04/04 05:25:46;;;;;;;4.35;2.80;;;7.80;96.70;;;;;;5113079;27;20055;-84
2022/04/04 05:28:14;;;;;;;4.05;3.30;;;7.90;96.70;;;;;;5103376;27;20043;-83
2022/04/04 05:30:42;;;;;;;7.18;3.58;;;7.90;96.70;;;;;;5126464;27;20031;-83
2022/04/04 05:33:10;;;;;;;5.93;3.80;;;7.90;96.70;;;;;;5107431;27;20039;-83
2022/04/04 05:35:39;;;;;;;7.82;4.18;;;8.00;96.70;;;;;;5112136;27;20058;-84
2022/04/04 05:38:07;;;;;;;6.93;3.45;;;8.00;96.70;;;;;;5111896;27;20126;-84
2022/04/04 05:40:37;;;;;;;8.75;4.10;;;8.00;96.70;;;;;;5112004;27;20139;-84
2022/04/04 05:43:07;;;;;;;8.10;4.07;;;8.10;96.70;;;;;;5123181;27;20070;-84
2022/04/04 05:45:35;;;;;;;8.77;3.95;;;8.30;96.70;;;;;;5111785;27;20130;-83
2022/04/04 05:48:07;;;;;;;8.50;4.03;;;8.30;96.70;;;;;;5111924;27;20055;-82
2022/04/04 05:50:36;;;;;;;8.20;3.55;;;8.40;96.70;;;;;;5103489;27;20124;-84
2022/04/04 05:53:04;;;;;;;9.32;4.38;;;8.50;96.70;;;;;;5090709;28;20069;-84
2022/04/04 05:55:32;;;;;;;13.15;5.22;;;8.50;96.70;;;;;;5105673;28;20047;-84
2022/04/04 05:58:02;;;;;;;12.77;6.78;;;8.40;96.70;;;;;;5099025;28;20657;-83
2022/04/04 06:00:30;;;;;;;12.90;8.40;;;8.40;96.70;;;;;;5099885;28;20040;-83
2022/04/04 06:02:59;;;;;;;13.98;7.88;;;8.40;96.70;;;;;;5105315;28;20043;-85
2022/04/04 06:05:27;;;;;;;11.45;6.88;;;8.40;96.70;;;;;;5102166;28;20040;-82
2022/04/04 06:07:55;;;;;;;8.07;4.93;;;8.40;96.70;;;;;;5098466;28;20083;-81
2022/04/04 06:10:24;;;;;;;4.07;2.75;;;8.30;96.70;;;;;;5078021;28;20130;-83
2022/04/04 06:12:52;;;;;;;5.10;2.70;;;8.30;96.70;;;;;;5098372;27;20775;-83
2022/04/04 06:15:21;;;;;;;2.78;2.05;;;8.40;96.70;;;;;;5083832;28;20047;-83
2022/04/04 06:17:49;;;;;;;3.47;1.90;;;8.40;96.70;;;;;;5098506;28;20043;-84
2022/04/04 06:20:18;;;;;;;3.10;2.00;;;8.40;96.70;;;;;;5086790;28;20625;-84
2022/04/04 06:22:47;;;;;;;2.72;2.13;;;8.40;96.70;;;;;;5102563;28;20050;-84
2022/04/04 06:25:16;;;;;;;2.22;1.80;;;8.40;96.70;;;;;;5085816;28;20055;-84
2022/04/04 06:27:46;;;;;;;2.30;1.83;;;8.40;96.70;;;;;;5090080;28;20343;-84
2022/04/04 06:30:14;;;;;;;1.90;1.63;;;8.50;96.70;;;;;;5088414;28;20508;-84
2022/04/04 06:32:44;;;;;;;2.75;2.22;;;8.60;96.70;;;;;;5095008;28;20064;-82
2022/04/04 06:35:13;;;;;;;3.90;2.53;;;8.60;96.70;;;;;;5110802;27;20134;-84
2022/04/04 06:37:42;;;;;;;2.55;2.17;;;8.60;96.70;;;;;;5107029;28;20084;-84
2022/04/04 06:40:11;;;;;;;2.45;2.15;;;8.60;96.70;;;;;;5106904;28;20052;-83
2022/04/04 06:42:41;;;;;;;3.38;2.53;;;8.70;96.70;;;;;;5107190;28;20067;-84
2022/04/04 06:45:11;;;;;;;3.25;2.45;;;8.70;96.70;;;;;;5093239;28;20043;-82
2022/04/04 06:47:40;;;;;;;4.80;2.20;;;8.80;96.70;;;;;;5108473;27;20261;-84
2022/04/04 06:50:13;;;;;;;3.70;2.35;;;8.90;96.70;;;;;;5103546;28;20044;-83
2022/04/04 06:52:42;;;;;;;4.07;2.53;;;8.90;96.70;;;;;;5078926;28;20048;-83
2022/04/04 06:55:31;;;;;;;3.70;2.47;;;8.90;96.70;;;;;;5098747;28;20580;-84
2022/04/04 06:57:59;;;;;;;3.20;2.20;;;8.90;96.70;;;;;;5079043;28;20508;-83
2022/04/04 07:00:27;;;;;;;5.30;2.55;;;9.00;96.70;;;;;;5087780;28;20047;-82
2022/04/04 07:02:56;;;;;;;3.35;2.50;;;9.00;96.70;;;;;;5074114;28;20044;-84
2022/04/04 07:05:26;;;;;;;3.42;2.60;;;9.10;96.70;;;;;;5087014;28;20052;-84
2022/04/04 07:07:54;;;;;;;3.65;3.35;;;9.20;96.70;;;;;;5087014;28;20040;-84
2022/04/04 07:10:22;;;;;;;3.10;2.58;;;9.20;96.70;;;;;;5068171;28;20040;-84
2022/04/04 07:12:50;;;;;;;4.10;2.83;;;9.30;96.70;;;;;;5082736;28;20137;-85
2022/04/04 07:15:18;;;;;;;4.40;2.75;;;9.30;96.70;;;;;;5089013;28;20039;-84
2022/04/04 07:17:51;;;;;;;4.20;2.80;;;9.30;96.70;;;;;;5085140;28;20043;-84
2022/04/04 07:20:19;;;;;;;4.95;4.00;;;9.40;96.70;;;;;;5090050;28;20032;-84
2022/04/04 07:22:49;;;;;;;3.78;2.70;;;9.50;96.70;;;;;;5071004;28;20140;-84
2022/04/04 07:25:17;;;;;;;4.85;2.92;;;9.60;96.70;;;;;;5069236;28;20056;-84
2022/04/04 07:27:46;;;;;;;3.38;3.08;;;9.60;96.70;;;;;;5086871;28;20059;-84
2022/04/04 07:30:17;;;;;;;3.90;3.47;;;9.60;96.70;;;;;;5091985;28;20040;-83
2022/04/04 07:32:46;;;;;;;4.75;3.22;;;9.70;96.70;;;;;;5086492;28;20075;-82
2022/04/04 07:35:15;;;;;;;4.68;3.45;;;9.70;96.70;;;;;;5089296;28;20040;-84
2022/04/04 07:37:44;;;;;;;4.03;3.65;;;9.70;96.70;;;;;;5087381;28;20085;-82
2022/04/04 07:40:16;;;;;;;5.45;4.35;;;9.80;96.70;;;;;;5085289;28;20044;-85
2022/04/04 07:42:45;;;;;;;4.40;3.88;;;9.80;96.70;;;;;;5072357;28;20040;-85
2022/04/04 07:45:15;;;;;;;5.28;4.25;;;9.90;96.70;;;;;;5087653;28;20048;-83
2022/04/04 07:47:44;;;;;;;5.05;4.22;;;10.00;96.70;;;;;;5093479;28;20040;-84
2022/04/04 07:50:14;;;;;;;7.03;4.90;;;10.10;96.70;;;;;;5087817;28;20101;-84
2022/04/04 07:52:42;;;;;;;6.13;4.63;;;10.10;96.70;;;;;;5095565;28;20104;-84
2022/04/04 07:55:10;;;;;;;5.13;4.25;;;10.20;96.70;;;;;;5090160;28;20521;-85
2022/04/04 07:57:41;;;;;;;4.95;4.25;;;10.30;96.70;;;;;;5095988;28;20142;-84
2022/04/04 08:00:11;;;;;;;5.05;4.00;;;10.40;96.70;;;;;;5094105;28;20040;-83
2022/04/04 08:02:39;;;;;;;4.57;4.18;;;10.40;96.70;;;;;;5094602;28;20493;-83
2022/04/04 08:05:08;;;;;;;4.35;3.40;;;10.50;96.70;;;;;;5086864;28;20433;-82
2022/04/04 08:07:37;;;;;;;4.25;2.97;;;10.60;96.70;;;;;;5093126;28;20043;-83
2022/04/04 08:10:06;;;;;;;2.72;2.30;;;10.60;96.70;;;;;;5087868;28;20051;-84
2022/04/04 08:12:35;;;;;;;4.30;2.42;;;10.70;96.70;;;;;;5093701;28;20493;-83
2022/04/04 08:15:05;;;;;;;3.58;2.60;;;10.70;96.70;;;;;;5087904;28;20428;-82
2022/04/04 08:17:33;;;;;;;2.75;1.90;;;10.80;96.70;;;;;;5082834;28;20067;-78
2022/04/04 08:20:02;;;;;;;2.25;1.80;;;10.80;96.70;;;;;;5066051;28;20109;-79
2022/04/04 08:22:36;;;;;;;3.10;2.20;;;10.80;96.70;;;;;;5073692;28;20051;-80
2022/04/04 08:25:05;;;;;;;3.15;2.58;;;10.90;96.70;;;;;;5080014;28;20480;-79
2022/04/04 08:27:35;;;;;;;2.95;2.10;;;10.90;96.70;;;;;;5065971;28;20044;-77
2022/04/04 08:30:07;;;;;;;4.07;3.15;;;10.90;96.70;;;;;;5068700;28;20048;-78
2022/04/04 08:32:36;;;;;;;3.60;2.90;;;11.00;96.70;;;;;;5093891;28;20417;-78
2022/04/04 08:35:06;;;;;;;2.95;2.47;;;11.20;96.70;;;;;;5081639;28;20135;-78
2022/04/04 08:37:35;;;;;;;4.50;2.78;;;11.20;96.70;;;;;;5083232;28;20071;-78
2022/04/04 08:40:05;;;;;;;4.72;3.00;;;11.20;96.70;;;;;;5087602;28;20055;-78
2022/04/04 08:42:35;;;;;;;4.53;3.47;;;11.30;96.70;;;;;;5067764;28;20052;-78
2022/04/04 08:45:06;;;;;;;6.03;3.63;;;11.40;96.70;;;;;;5084662;28;20051;-78
2022/04/04 08:47:34;;;;;;;4.78;3.30;;;11.40;96.70;;;;;;5084665;28;20051;-78
2022/04/04 08:50:02;;;;;;;4.43;3.47;;;11.40;96.70;;;;;;5084720;28;20039;-77
2022/04/04 08:52:31;;;;;;;3.85;3.05;;;11.50;96.70;;;;;;5088405;28;20052;-78
2022/04/04 08:54:59;;;;;;;3.08;2.78;;;11.60;96.70;;;;;;5090871;28;20047;-78
2022/04/04 08:57:27;;;;;;;3.95;3.10;;;11.60;96.70;;;;;;5086419;28;20127;-77
2022/04/04 08:59:55;;;;;;;4.47;3.20;;;11.60;96.70;;;;;;5084437;28;20036;-78
2022/04/04 09:02:25;;;;;;;3.60;2.85;;;11.60;96.70;;;;;;5087069;28;20408;-78
2022/04/04 09:04:53;;;;;;;3.05;2.70;;;11.70;96.70;;;;;;5096423;28;20465;-77
2022/04/04 09:07:21;;;;;;;3.65;3.05;;;11.80;96.70;;;;;;5067908;28;20056;-78
2022/04/04 09:09:50;;;;;;;3.30;2.85;;;11.90;96.70;;;;;;5084209;28;20515;-78
2022/04/04 09:12:20;;;;;;;5.25;3.10;;;12.00;96.70;;;;;;5092881;28;20873;-77
2022/04/04 09:14:54;;;;;;;4.00;2.70;;;12.10;96.70;;;;;;5085194;28;20036;-78
2022/04/04 09:17:27;;;;;;;3.25;2.60;;;12.20;96.70;;;;;;5082663;28;20051;-78
2022/04/04 09:19:57;;;;;;;4.13;2.63;;;12.30;96.70;;;;;;5064200;28;20136;-78
2022/04/04 09:22:25;;;;;;;3.35;2.53;;;12.40;96.70;;;;;;5090468;28;20040;-79
2022/04/04 09:24:57;;;;;;;3.13;2.67;;;12.40;96.70;;;;;;5090905;28;20047;-78
2022/04/04 09:27:28;;;;;;;4.65;2.63;;;12.50;96.70;;;;;;5083538;28;20097;-77
2022/04/04 09:29:57;;;;;;;3.58;2.40;;;12.50;96.70;;;;;;5070315;28;20113;-79
2022/04/04 09:32:37;;;;;;;4.93;2.33;;;12.50;96.70;;;;;;5087734;28;20051;-79
2022/04/04 09:35:11;;;;;;;5.85;2.38;;;12.70;96.70;;;;;;5083735;28;20616;-79
2022/04/04 09:37:41;;;;;;;4.70;2.70;;;12.70;96.70;;;;;;5089958;28;20051;-79
2022/04/04 09:40:12;;;;;;;2.97;2.33;;;12.80;96.70;;;;;;5087391;28;20060;-79
2022/04/04 09:42:55;;;;;;;3.72;2.47;;;12.90;96.70;;;;;;5065981;28;20053;-79
2022/04/04 09:45:25;;;;;;;3.42;2.25;;;13.00;96.70;;;;;;5088525;28;20055;-78
2022/04/04 09:47:56;;;;;;;2.72;2.35;;;12.90;96.70;;;;;;5085116;28;20501;-78
2022/04/04 09:50:37;;;;;;;4.85;2.85;;;13.00;96.70;;;;;;5089691;28;20058;-78
2022/04/04 09:53:14;;;;;;;3.20;2.30;;;13.20;96.70;;;;;;5074385;28;20051;-78
2022/04/04 09:55:43;;;;;;;2.58;1.90;;;13.30;96.70;;;;;;5077271;28;20068;-79
2022/04/04 09:58:14;;;;;;;3.20;1.73;;;13.30;96.70;;;;;;5072387;28;20644;-79
2022/04/04 10:00:44;;;;;;;1.80;1.45;;;13.10;96.70;;;;;;5082577;28;20102;-77
2022/04/04 10:03:16;;;;;;;4.50;1.80;;;12.80;96.70;;;;;;5082086;28;20054;-78
2022/04/04 10:05:47;;;;;;;4.55;1.75;;;12.80;96.70;;;;;;5077718;28;20056;-77
2022/04/04 10:08:20;;;;;;;4.05;1.75;;;13.00;96.70;;;;;;5079919;28;20051;-76
2022/04/04 10:10:49;;;;;;;2.17;1.35;;;13.30;96.70;;;;;;5078035;28;20068;-76
2022/04/04 10:13:18;;;;;;;3.88;1.75;;;13.50;96.70;;;;;;5074014;28;20044;-76
2022/04/04 10:15:48;;;;;;;2.67;2.00;;;13.50;96.70;;;;;;5075772;28;20410;-76
2022/04/04 10:18:19;;;;;;;2.85;1.80;;;13.60;96.70;;;;;;5076992;28;20495;-76
2022/04/04 10:20:56;;;;;;;2.63;1.30;;;13.40;96.70;;;;;;5056940;28;20082;-76
2022/04/04 10:23:27;;;;;;;3.45;1.20;;;13.20;96.70;;;;;;5077397;28;20044;-77
2022/04/04 10:25:58;;;;;;;3.55;1.08;;;13.40;96.70;;;;;;5080007;28;20445;-76
2022/04/04 10:28:27;;;;;;;3.00;0.90;;;13.50;96.70;;;;;;5062937;28;20052;-76
2022/04/04 10:30:59;;;;;;;2.05;0.90;;;13.60;96.70;;;;;;5071641;28;20402;-77
2022/04/04 10:33:55;;;;;;;2.42;0.68;;;13.60;96.70;;;;;;5077500;28;20055;-76
2022/04/04 10:36:25;;;;;;;1.58;0.90;;;13.50;96.70;;;;;;4999633;28;20052;-76
2022/04/04 10:38:54;;;;;;;0.98;0.70;;;13.60;96.70;;;;;;4985139;28;20109;-77
2022/04/04 10:41:26;;;;;;;2.35;1.05;;;13.90;96.70;;;;;;4992682;28;20054;-76
2022/04/04 10:43:55;;;;;;;2.63;1.00;;;13.90;96.70;;;;;;4983180;28;20398;-76
2022/04/04 10:46:25;;;;;;;1.60;0.80;;;14.00;96.70;;;;;;4984059;28;20412;-76
2022/04/04 10:49:00;;;;;;;2.30;1.13;;;14.20;96.70;;;;;;4984582;28;20700;-76
2022/04/04 10:51:30;;;;;;;2.03;0.90;;;14.40;96.70;;;;;;4983443;28;20531;-76
2022/04/04 10:54:02;;;;;;;1.45;0.80;;;14.70;96.70;;;;;;5020977;28;20053;-76
2022/04/04 10:56:33;;;;;;;1.63;1.08;;;14.90;96.70;;;;;;5020234;28;20045;-76
2022/04/04 10:59:25;;;;;;;2.38;1.13;;;15.20;96.70;;;;;;5003981;28;20049;-77
2022/04/04 11:01:56;;;;;;;1.80;0.80;;;15.10;96.70;;;;;;5003342;28;20471;-77
2022/04/04 11:04:27;;;;;;;1.50;0.93;;;15.00;96.70;;;;;;5021037;28;20435;-77
2022/04/04 11:09:55;;;;;;;1.60;1.02;;;15.20;96.70;;;;;;5003269;28;20196;-77
2022/04/04 11:12:25;;;;;;;1.40;0.90;;;15.30;96.70;;;;;;5017553;28;20044;-77
2022/04/04 11:15:03;;;;;;;1.92;0.90;;;15.50;96.70;;;;;;5103455;28;20036;-76
2022/04/04 11:17:36;;;;;;;1.50;0.80;;;15.70;96.70;;;;;;5102218;28;20048;-76
2022/04/04 11:20:33;;;;;;;1.63;1.05;;;15.80;96.70;;;;;;5101822;28;20047;-77
2022/04/04 11:23:04;;;;;;;3.33;1.02;;;15.80;96.70;;;;;;5099521;28;20048;-77
2022/04/04 11:25:37;;;;;;;1.40;0.70;;;16.10;96.70;;;;;;5084742;28;20094;-77
2022/04/04 11:28:06;;;;;;;1.88;0.90;;;16.20;96.70;;;;;;5100262;28;20047;-77
2022/04/04 11:30:34;;;;;;;2.47;1.00;;;16.10;96.70;;;;;;5101862;28;20039;-76
2022/04/04 11:33:02;;;;;;;1.30;0.85;;;16.10;96.70;;;;;;5096965;28;20056;-77
2022/04/04 11:35:32;;;;;;;2.85;0.90;;;16.10;96.70;;;;;;5085001;28;20069;-77
2022/04/04 11:38:01;;;;;;;1.27;0.88;;;16.20;96.70;;;;;;5085322;28;20051;-77
2022/04/04 11:40:34;;;;;;;1.52;0.88;;;16.10;96.70;;;;;;5102516;28;20408;-77
2022/04/04 11:43:05;;;;;;;1.50;0.80;;;16.40;96.70;;;;;;5081872;28;20044;-77
2022/04/04 11:45:39;;;;;;;2.58;0.70;;;16.40;96.70;;;;;;5101845;28;20108;-77
2022/04/04 11:48:14;;;;;;;2.28;0.90;;;16.40;96.70;;;;;;5095499;28;20054;-77
2022/04/04 11:50:45;;;;;;;2.20;0.90;;;16.50;96.70;;;;;;5098832;28;20096;-76
2022/04/04 11:53:15;;;;;;;1.58;0.70;;;16.70;96.70;;;;;;5082355;28;20048;-77
2022/04/04 11:55:46;;;;;;;0.90;0.60;;;16.70;96.70;;;;;;5081489;28;20119;-76
2022/04/04 11:58:15;;;;;;;2.80;0.93;;;17.00;96.70;;;;;;5080122;28;20054;-76
2022/04/04 12:00:53;;;;;;;1.60;1.00;;;17.20;96.70;;;;;;5064908;28;20052;-77
2022/04/04 12:03:23;;;;;;;3.92;0.80;;;17.20;95.10;;;;;;5078841;28;20033;-78
2022/04/04 12:05:55;;;;;;;1.30;0.70;;;17.10;94.60;;;;;;5065528;28;20131;-77
2022/04/04 12:08:25;;;;;;;2.13;0.82;;;17.20;94.90;;;;;;5082753;28;20047;-77
2022/04/04 12:10:53;;;;;;;1.67;0.77;;;17.10;93.60;;;;;;5064457;28;20040;-77
2022/04/04 12:13:23;;;;;;;1.40;0.50;;;16.70;90.00;;;;;;5085281;28;20040;-77
2022/04/04 12:15:54;;;;;;;1.38;0.50;;;16.20;91.00;;;;;;5068770;28;20147;-77
2022/04/04 12:18:24;;;;;;;6.25;4.40;;;16.30;90.60;;;;;;5085060;28;20051;-77
2022/04/04 12:20:57;;;;;;;15.32;10.70;;;16.60;90.00;;;;;;5068344;28;20152;-78
2022/04/04 12:26:15;;;;;;;3.30;1.85;;;17.20;90.30;;;;;;5093087;28;20121;-77
2022/04/04 12:28:53;;;;;;;1.63;0.85;;;17.00;91.90;;;;;;5098814;28;20040;-77
2022/04/04 12:31:23;;;;;;;1.67;0.95;;;16.60;92.30;;;;;;5082631;28;20075;-77
2022/04/04 12:33:59;;;;;;;2.03;0.80;;;16.40;93.70;;;;;;5084555;28;20031;-76
2022/04/04 12:36:31;;;;;;;3.03;0.88;;;16.10;95.60;;;;;;5084656;28;20036;-77
2022/04/04 12:38:59;;;;;;;1.88;1.23;;;16.00;95.80;;;;;;5086830;28;20040;-77
2022/04/04 12:41:28;;;;;;;3.00;1.30;;;16.00;96.70;;;;;;5083339;28;20046;-76
2022/04/04 12:44:01;;;;;;;3.47;1.38;;;15.90;96.70;;;;;;5084582;28;20048;-76
2022/04/04 12:46:30;;;;;;;3.72;1.80;;;15.70;96.70;;;;;;5082238;28;20040;-76
2022/04/04 12:49:11;;;;;;;3.95;1.52;;;15.70;96.70;;;;;;5079196;28;20040;-76
2022/04/04 12:51:49;;;;;;;2.45;1.45;;;15.70;96.70;;;;;;5104740;27;20108;-83
2022/04/04 12:54:24;;;;;;;3.58;1.40;;;15.90;96.70;;;;;;5102676;27;20046;-82
2022/04/04 12:56:53;;;;;;;4.30;1.35;;;16.40;96.70;;;;;;5113180;27;20092;-82
2022/04/04 12:59:24;;;;;;;3.13;1.60;;;16.80;95.70;;;;;;5112788;27;20043;-83
2022/04/04 13:26:53;;;;;;;1.13;0.82;;;17.20;91.50;;;;;;5138413;27;20131;-84
2022/04/04 13:29:21;;;;;;;2.75;0.68;;;17.20;91.60;;;;;;5107156;28;20058;-82
2022/04/04 13:31:49;;;;;;;1.23;0.63;;;17.10;90.90;;;;;;5141948;27;20062;-82
2022/04/04 13:34:17;;;;;;;4.00;1.00;;;17.20;90.60;;;;;;5107399;28;20046;-82
2022/04/04 13:36:47;;;;;;;1.27;0.70;;;17.40;91.60;;;;;;5090935;28;20134;-83